Clearlake, WA (98235)

3:03 AM PDT on September 20, 2014 (GMT -0700)
Highlands | Change Station
CLOSE
Current Station
Personal Weather Station
Location: Mount Vernon, WA
Elevation: 499 ft
Nearby Weather Stations

Elev 499 ft 48.41 °N, 122.28 °W | Updated 1 minute ago

Mostly Cloudy
Mostly Cloudy
55.9 °F
Feels Like 55.9 °F
N
0.0
Wind Variable Wind from ENE

Today
High -- | Low -- °F
--% Chance of Precip.
Yesterday
High -- | Low -- °F
Precip. -- in
6:52 AM 7:10 PM
Waning Crescent, 13% visible
Pressure 30.15 in
Visibility 6.0 miles
Clouds Few 500 ft
Scattered Clouds 1000 ft
Scattered Clouds 3500 ft
Dew Point 56 °F
Humidity 99%
Rainfall 0.00 in
Snow Depth 0 in , 0 in , 0 in
UV 0 out of 12
Pollen .70 out of 12
PM2.5 Good
Flu Activity Not available.
METAR KNUW 200956Z 00000KT 6SM BR FEW005 SCT010 SCT035 12/10 A3013 RMK AO2 SLP208 T01170100

More Conditions Fewer Conditions

Pressure 30.15 in
Visibility 6.0 miles
Clouds Few 500 ft
Scattered Clouds 1000 ft
Scattered Clouds 3500 ft
Dew Point 56 °F
Humidity 99%
Rainfall 0.00 in
Snow Depth 0 in , 0 in , 0 in
UV 0 out of 12
Pollen .70 out of 12
PM2.5 Good
Flu Activity Not available.
METAR KNUW 200956Z 00000KT 6SM BR FEW005 SCT010 SCT035 12/10 A3013 RMK AO2 SLP208 T01170100

More Conditions Fewer Conditions

10-Day Weather Forecast

Almanac

Astronomy

Sep. 20, 2014 Rise Set
Actual Time 6:52 AM PDT 7:10 PM PDT
Civil Twilight 6:21 AM PDT 7:42 PM PDT
Nautical Twilight 5:44 AM PDT 8:18 PM PDT
Astronomical Twilight 5:06 AM PDT 8:57 PM PDT
Moon 3:24 AM PDT 5:27 PM PDT
Length of Visible Light 13h 20m
Length of Day
12h 17m
Tomorrow will be 3m 31s shorter.
Waning Crescent, 13% of the Moon is Illuminated
Today
Waning Crescent
Sep 24
New
Oct 1
First Quarter
Oct 8
Full
Oct 15
Last Quarter

Today's Extremes

State Highs State Lows

Community

WunderPhotos

Upload Photos

1,754,820 photos uploaded!

WunderBlogs® & News

Nearby

Air Quality

  Air Quality AQ Index Pollutant
Yesterday Good
OZONE
Yesterday Good
PM2.5
Current Good
PM2.5
Saturday Good
OZONE
Saturday Good
PM2.5
Sunday Good
OZONE
Sunday Good
PM2.5
Monday Good
OZONE
Monday Good
PM2.5

Snow Depth

Station Depth Elevation
Mount Crag 0 in 4050 ft
Quartz Peak 2 in 4700 ft
Lone Pine 0 in 3800 ft
Spirit Lake 0 in 3120 ft
Sasse Ridge 0 in 4200 ft

Earthquake Activity

City Distance Mag. Time & Date
Seabeck, Washington 71 miles 4.0 3:06 AM PDT
2014-09-17
Minimum magnitude displayed is 2.5.

Coastal Water Temperatures

Place Temperature
Port Townsend, WA 53.1 °F
Friday Harbor, WA 52.0 °F
Port Angeles, WA 53.1 °F

Nearby Weather Stations